createdAt,value
2023-04-04T00:01:12.790Z,100.00
2023-04-04T00:03:41.593Z,100.00
2023-04-04T00:06:09.775Z,100.00
2023-04-04T00:08:39.203Z,100.00
2023-04-04T00:11:08.017Z,100.00
2023-04-04T00:13:36.166Z,100.00
2023-04-04T00:16:04.380Z,100.00
2023-04-04T00:18:32.830Z,100.00
2023-04-04T00:21:02.051Z,100.00
2023-04-04T00:23:30.153Z,100.00
2023-04-04T00:26:00.119Z,100.00
2023-04-04T00:28:28.630Z,100.00
2023-04-04T00:30:57.084Z,100.00
2023-04-04T00:33:26.321Z,100.00
2023-04-04T00:35:58.719Z,100.00
2023-04-04T00:38:27.242Z,100.00
2023-04-04T00:40:55.997Z,100.00
2023-04-04T00:43:26.085Z,100.00
2023-04-04T00:45:55.066Z,100.00
2023-04-04T00:48:25.517Z,100.00
2023-04-04T00:50:53.785Z,100.00
2023-04-04T00:53:22.442Z,100.00
2023-04-04T00:55:50.572Z,100.00
2023-04-04T00:58:20.926Z,100.00
2023-04-04T01:00:50.637Z,100.00
2023-04-04T01:03:19.575Z,100.00
2023-04-04T01:05:47.571Z,100.00
2023-04-04T01:08:15.926Z,100.00
2023-04-04T01:10:43.969Z,100.00
2023-04-04T01:13:12.054Z,100.00
2023-04-04T01:15:41.139Z,100.00
2023-04-04T01:18:13.393Z,100.00
2023-04-04T01:20:45.049Z,100.00
2023-04-04T01:23:13.148Z,100.00
2023-04-04T01:25:42.926Z,100.00
2023-04-04T01:28:11.367Z,100.00
2023-04-04T01:30:39.535Z,100.00
2023-04-04T01:33:09.688Z,100.00
2023-04-04T01:35:42.446Z,100.00
2023-04-04T01:38:25.852Z,100.00
2023-04-04T01:40:57.283Z,100.00
2023-04-04T01:43:25.264Z,100.00
2023-04-04T01:45:53.554Z,100.00
2023-04-04T01:48:22.396Z,100.00
2023-04-04T01:50:50.659Z,100.00
2023-04-04T01:53:18.692Z,100.00
2023-04-04T01:55:47.111Z,100.00
2023-04-04T01:58:16.729Z,100.00
2023-04-04T02:00:44.675Z,100.00
2023-04-04T02:03:12.729Z,100.00
2023-04-04T02:05:41.008Z,100.00
2023-04-04T02:08:08.988Z,100.00
2023-04-04T02:10:36.943Z,100.00
2023-04-04T02:13:05.009Z,100.00
2023-04-04T02:15:34.643Z,100.00
2023-04-04T02:18:03.641Z,100.00
2023-04-04T02:20:31.783Z,100.00
2023-04-04T02:22:59.785Z,100.00
2023-04-04T02:25:27.931Z,100.00
2023-04-04T02:27:56.177Z,100.00
2023-04-04T02:30:24.220Z,100.00
2023-04-04T02:32:53.650Z,100.00
2023-04-04T02:35:21.731Z,100.00
2023-04-04T02:37:50.066Z,100.00
2023-04-04T02:40:19.201Z,100.00
2023-04-04T02:42:47.173Z,100.00
2023-04-04T02:45:15.284Z,100.00
2023-04-04T02:47:43.767Z,100.00
2023-04-04T02:50:13.774Z,100.00
2023-04-04T02:52:41.796Z,100.00
2023-04-04T02:55:10.618Z,100.00
2023-04-04T02:57:38.650Z,100.00
2023-04-04T03:00:08.207Z,100.00
2023-04-04T03:02:36.379Z,100.00
2023-04-04T03:05:07.129Z,100.00
2023-04-04T03:07:38.611Z,100.00
2023-04-04T03:10:07.422Z,100.00
2023-04-04T03:12:35.481Z,100.00
2023-04-04T03:15:05.498Z,100.00
2023-04-04T03:17:33.911Z,100.00
2023-04-04T03:20:01.920Z,100.00
2023-04-04T03:22:29.862Z,100.00
2023-04-04T03:24:59.806Z,100.00
2023-04-04T03:27:27.756Z,100.00
2023-04-04T03:29:55.735Z,100.00
2023-04-04T03:32:23.760Z,100.00
2023-04-04T03:34:52.142Z,100.00
2023-04-04T03:37:20.170Z,100.00
2023-04-04T03:39:48.519Z,100.00
2023-04-04T03:42:18.040Z,100.00
2023-04-04T03:44:46.306Z,100.00
2023-04-04T03:47:15.130Z,100.00
2023-04-04T03:49:43.142Z,100.00
2023-04-04T03:52:12.435Z,100.00
2023-04-04T03:54:41.810Z,100.00
2023-04-04T03:57:09.889Z,100.00
2023-04-04T03:59:41.880Z,100.00
2023-04-04T04:02:09.946Z,100.00
2023-04-04T04:04:37.972Z,100.00
2023-04-04T04:07:06.037Z,100.00
2023-04-04T04:09:34.113Z,100.00
2023-04-04T04:12:02.469Z,100.00
2023-04-04T04:14:30.582Z,100.00
2023-04-04T04:17:00.457Z,100.00
2023-04-04T04:19:28.456Z,100.00
2023-04-04T04:22:00.327Z,100.00
2023-04-04T04:24:29.193Z,100.00
2023-04-04T04:27:00.889Z,100.00
2023-04-04T04:29:30.147Z,100.00
2023-04-04T04:32:00.999Z,100.00
2023-04-04T04:34:29.330Z,100.00
2023-04-04T04:36:58.002Z,100.00
2023-04-04T04:39:26.070Z,100.00
2023-04-04T04:41:54.544Z,100.00
2023-04-04T04:44:22.472Z,100.00
2023-04-04T04:46:50.522Z,100.00
2023-04-04T04:49:19.950Z,100.00
2023-04-04T04:51:49.304Z,100.00
2023-04-04T04:54:17.317Z,100.00
2023-04-04T04:56:45.675Z,100.00
2023-04-04T04:59:15.161Z,100.00
2023-04-04T05:01:43.158Z,100.00
2023-04-04T05:04:11.605Z,100.00
2023-04-04T05:06:41.070Z,100.00
2023-04-04T05:09:09.013Z,100.00
2023-04-04T05:11:37.037Z,100.00
2023-04-04T05:14:05.173Z,100.00
2023-04-04T05:16:33.434Z,100.00
2023-04-04T05:19:01.847Z,100.00
2023-04-04T05:21:29.850Z,100.00
2023-04-04T05:23:59.973Z,100.00
2023-04-04T05:26:29.689Z,100.00
2023-04-04T05:28:59.309Z,100.00
2023-04-04T05:31:27.510Z,100.00
2023-04-04T05:33:56.329Z,100.00
2023-04-04T05:36:24.430Z,100.00
2023-04-04T05:38:52.447Z,100.00
2023-04-04T05:41:22.196Z,100.00
2023-04-04T05:43:50.188Z,100.00
2023-04-04T05:46:19.352Z,100.00
2023-04-04T05:48:47.384Z,100.00
2023-04-04T05:51:16.278Z,100.00
2023-04-04T05:53:47.926Z,100.00
2023-04-04T05:56:17.324Z,100.00
2023-04-04T05:58:47.131Z,100.00
2023-04-04T06:01:15.141Z,100.00
2023-04-04T06:03:43.220Z,100.00
2023-04-04T06:06:12.051Z,100.00
2023-04-04T06:08:53.004Z,100.00
2023-04-04T06:11:21.933Z,100.00
2023-04-04T06:13:52.943Z,100.00
2023-04-04T06:16:21.072Z,100.00
2023-04-04T06:18:49.172Z,100.00
2023-04-04T06:21:17.714Z,100.00
2023-04-04T06:23:45.736Z,100.00
2023-04-04T06:26:14.906Z,100.00
2023-04-04T06:28:49.717Z,100.00
2023-04-04T06:31:21.934Z,100.00
2023-04-04T06:33:49.972Z,100.00
2023-04-04T06:36:18.342Z,100.00
2023-04-04T06:38:46.475Z,100.00
2023-04-04T06:41:14.477Z,100.00
2023-04-04T06:43:42.585Z,100.00
2023-04-04T06:46:10.906Z,100.00
2023-04-04T06:48:40.287Z,100.00
2023-04-04T06:51:08.998Z,100.00
2023-04-04T06:53:37.451Z,100.00
2023-04-04T06:56:05.893Z,100.00
2023-04-04T06:58:34.193Z,100.00
2023-04-04T07:01:03.122Z,100.00
2023-04-04T07:03:31.208Z,100.00
2023-04-04T07:06:03.807Z,100.00
2023-04-04T07:08:36.082Z,100.00
2023-04-04T07:11:05.259Z,100.00
2023-04-04T07:13:33.623Z,100.00
2023-04-04T07:16:01.843Z,100.00
2023-04-04T07:18:29.935Z,100.00
2023-04-04T07:20:58.514Z,100.00
2023-04-04T07:23:29.229Z,100.00
2023-04-04T07:25:57.317Z,100.00
2023-04-04T07:28:25.457Z,100.00
2023-04-04T07:30:53.422Z,100.00
2023-04-04T07:33:21.479Z,100.00
2023-04-04T07:35:49.628Z,100.00
2023-04-04T07:38:17.824Z,100.00
2023-04-04T07:40:47.362Z,100.00
2023-04-04T07:43:15.307Z,100.00
2023-04-04T07:45:43.963Z,100.00
2023-04-04T07:48:11.997Z,100.00
2023-04-04T07:50:40.118Z,100.00
2023-04-04T07:53:08.553Z,100.00
2023-04-04T07:55:37.757Z,100.00
2023-04-04T07:58:08.296Z,100.00
2023-04-04T08:00:37.075Z,100.00
2023-04-04T08:03:05.321Z,100.00
2023-04-04T08:05:33.371Z,100.00
2023-04-04T08:08:01.849Z,100.00
2023-04-04T08:10:29.812Z,100.00
2023-04-04T08:12:58.915Z,100.00
2023-04-04T08:15:33.762Z,100.00
2023-04-04T08:18:02.129Z,100.00
2023-04-04T08:20:30.335Z,100.00
2023-04-04T08:22:58.621Z,100.00
2023-04-04T08:25:27.166Z,100.00
2023-04-04T08:27:58.087Z,100.00
2023-04-04T08:30:26.378Z,100.00
2023-04-04T08:32:56.030Z,100.00
2023-04-04T08:35:25.434Z,100.00
2023-04-04T08:37:53.763Z,100.00
2023-04-04T08:40:21.919Z,100.00
2023-04-04T08:42:50.149Z,99.02
2023-04-04T08:45:19.462Z,97.81
2023-04-04T08:47:48.386Z,97.48
2023-04-04T08:50:18.560Z,97.65
2023-04-04T08:52:46.619Z,98.01
2023-04-04T08:55:15.622Z,95.80
2023-04-04T08:57:43.675Z,93.60
2023-04-04T09:00:13.293Z,93.85
2023-04-04T09:02:44.451Z,88.81
2023-04-04T09:05:14.004Z,89.44
2023-04-04T09:07:43.690Z,87.27
2023-04-04T09:10:15.222Z,86.92
2023-04-04T09:12:44.921Z,85.84
2023-04-04T09:15:13.717Z,85.97
2023-04-04T09:17:41.831Z,86.40
2023-04-04T09:20:35.251Z,86.58
2023-04-04T09:23:06.484Z,87.03
2023-04-04T09:25:34.711Z,85.24
2023-04-04T09:28:05.591Z,84.55
2023-04-04T09:30:35.613Z,83.61
2023-04-04T09:33:05.472Z,83.32
2023-04-04T09:35:35.135Z,84.88
2023-04-04T09:38:04.622Z,81.04
2023-04-04T09:40:33.193Z,83.06
2023-04-04T09:43:02.288Z,81.26
2023-04-04T09:45:32.589Z,78.24
2023-04-04T09:48:01.311Z,80.88
2023-04-04T09:50:30.474Z,78.79
2023-04-04T09:52:59.371Z,80.85
2023-04-04T09:55:36.521Z,73.53
2023-04-04T09:58:13.060Z,76.08
2023-04-04T10:00:42.946Z,82.40
2023-04-04T10:03:11.069Z,79.93
2023-04-04T10:05:39.453Z,78.55
2023-04-04T10:08:17.959Z,77.81
2023-04-04T10:11:02.503Z,82.37
2023-04-04T10:13:37.145Z,83.85
2023-04-04T10:16:05.697Z,81.44
2023-04-04T10:18:34.619Z,79.42
2023-04-04T10:21:15.114Z,78.98
2023-04-04T10:23:46.630Z,77.56
2023-04-04T10:26:16.187Z,80.48
2023-04-04T10:28:44.320Z,78.77
2023-04-04T10:31:18.577Z,78.90
2023-04-04T10:33:49.792Z,77.43
2023-04-04T10:36:21.417Z,76.82
2023-04-04T10:38:53.054Z,76.53
2023-04-04T10:41:22.486Z,75.09
2023-04-04T10:43:51.227Z,76.30
2023-04-04T10:46:20.592Z,76.45
2023-04-04T10:48:48.683Z,78.20
2023-04-04T10:51:19.405Z,80.37
2023-04-04T10:53:47.443Z,78.99
2023-04-04T10:56:15.471Z,79.32
2023-04-04T10:58:48.235Z,78.78
2023-04-04T11:01:21.530Z,78.11
2023-04-04T11:04:27.245Z,75.37
2023-04-04T11:07:18.210Z,73.10
2023-04-04T11:10:26.014Z,74.46
2023-04-04T11:13:09.338Z,73.23
2023-04-04T11:15:48.928Z,74.16
2023-04-04T11:18:31.597Z,74.37
2023-04-04T11:21:03.750Z,72.30
2023-04-04T11:23:40.422Z,73.20
2023-04-04T11:26:09.270Z,74.62
2023-04-04T11:28:47.402Z,74.71
2023-04-04T11:31:32.675Z,75.02
2023-04-04T11:34:04.464Z,71.84
2023-04-04T11:36:56.471Z,70.10
2023-04-04T11:39:28.545Z,70.25
2023-04-04T11:41:58.924Z,68.61
2023-04-04T11:44:30.764Z,71.01
2023-04-04T11:47:06.076Z,71.48
2023-04-04T11:49:35.774Z,71.87
2023-04-04T11:52:05.934Z,71.78
2023-04-04T11:54:33.978Z,70.56
2023-04-04T11:57:03.581Z,69.24
2023-04-04T11:59:31.764Z,67.82
2023-04-04T12:02:02.947Z,66.68
2023-04-04T12:04:33.095Z,66.80
2023-04-04T12:07:01.242Z,65.93
2023-04-04T12:09:29.264Z,67.52
2023-04-04T12:11:58.118Z,65.65
2023-04-04T12:14:27.269Z,64.26
2023-04-04T12:16:56.811Z,64.64
2023-04-04T12:19:24.875Z,64.18
2023-04-04T12:21:54.591Z,63.29
2023-04-04T12:24:22.695Z,63.28
2023-04-04T12:26:52.457Z,60.72
2023-04-04T12:29:21.664Z,59.92
2023-04-04T12:31:49.750Z,59.81
2023-04-04T12:34:23.433Z,61.80
2023-04-04T12:36:54.794Z,59.65
2023-04-04T12:39:23.987Z,65.14
2023-04-04T12:41:57.414Z,65.26
2023-04-04T12:44:29.260Z,62.75
2023-04-04T12:46:58.888Z,64.05
2023-04-04T12:49:30.320Z,67.66
2023-04-04T12:52:04.437Z,67.59
2023-04-04T12:54:33.228Z,64.58
2023-04-04T12:57:04.355Z,65.69
2023-04-04T12:59:34.047Z,59.53
2023-04-04T13:02:03.641Z,57.46
2023-04-04T13:04:31.723Z,58.57
2023-04-04T13:07:02.045Z,60.53
2023-04-04T13:09:30.161Z,58.10
2023-04-04T13:12:00.136Z,58.85
2023-04-04T13:14:28.681Z,59.90
2023-04-04T13:17:05.860Z,59.62
2023-04-04T13:19:34.437Z,62.58
2023-04-04T13:22:03.945Z,60.35
2023-04-04T13:24:32.156Z,59.65
2023-04-04T13:27:01.019Z,59.49
2023-04-04T13:29:29.068Z,61.14
2023-04-04T13:31:57.646Z,62.02
2023-04-04T13:34:26.770Z,61.14
2023-04-04T13:36:56.356Z,59.81
2023-04-04T13:39:25.873Z,59.48
2023-04-04T13:41:53.990Z,59.67
2023-04-04T13:44:21.971Z,59.99
2023-04-04T13:46:50.018Z,62.22
2023-04-04T13:49:19.173Z,62.65
2023-04-04T13:51:47.985Z,61.71
2023-04-04T13:54:16.257Z,60.47
2023-04-04T13:56:46.942Z,59.84
2023-04-04T13:59:14.941Z,59.76
2023-04-04T14:01:43.241Z,60.59
2023-04-04T14:07:11.202Z,62.56
2023-04-04T14:09:39.672Z,61.79
2023-04-04T14:12:09.368Z,58.26
2023-04-04T14:14:37.953Z,60.21
2023-04-04T14:17:06.399Z,58.79
2023-04-04T14:19:34.563Z,60.96
2023-04-04T14:22:02.715Z,60.14
2023-04-04T14:24:30.670Z,61.64
2023-04-04T14:26:59.048Z,61.17
2023-04-04T14:29:28.465Z,61.69
2023-04-04T14:31:58.061Z,61.08
2023-04-04T14:34:28.072Z,62.67
2023-04-04T14:36:56.122Z,61.59
2023-04-04T14:39:25.473Z,59.70
2023-04-04T14:41:54.002Z,61.23
2023-04-04T14:44:22.485Z,61.72
2023-04-04T14:46:53.068Z,60.00
2023-04-04T14:49:21.132Z,59.78
2023-04-04T14:51:50.119Z,61.00
2023-04-04T14:54:18.206Z,62.10
2023-04-04T14:56:47.439Z,58.97
2023-04-04T14:59:19.850Z,61.50
2023-04-04T15:01:55.162Z,60.12
2023-04-04T15:04:25.160Z,60.38
2023-04-04T15:06:53.691Z,59.51
2023-04-04T15:09:21.743Z,59.25
2023-04-04T15:11:52.441Z,59.04
2023-04-04T15:14:20.763Z,59.12
2023-04-04T15:16:48.886Z,58.96
2023-04-04T15:19:16.975Z,59.23
2023-04-04T15:21:49.200Z,60.88
2023-04-04T15:24:18.613Z,59.05
2023-04-04T15:26:47.405Z,60.20
2023-04-04T15:29:15.785Z,58.19
2023-04-04T15:31:43.909Z,58.99
2023-04-04T15:34:12.672Z,59.59
2023-04-04T15:36:44.379Z,58.24
2023-04-04T15:39:14.005Z,57.95
2023-04-04T15:41:42.159Z,57.39
2023-04-04T15:44:10.329Z,57.29
2023-04-04T15:46:38.755Z,57.62
2023-04-04T15:49:06.933Z,58.45
2023-04-04T15:51:36.293Z,58.25
2023-04-04T15:54:04.346Z,57.02
2023-04-04T15:56:33.783Z,56.73
2023-04-04T15:59:01.854Z,58.03
2023-04-04T16:01:30.250Z,58.06
2023-04-04T16:03:58.811Z,59.28
2023-04-04T16:06:27.289Z,56.91
2023-04-04T16:08:55.614Z,58.02
2023-04-04T16:11:23.736Z,57.31
2023-04-04T16:13:53.369Z,55.76
2023-04-04T16:16:21.824Z,55.58
2023-04-04T16:18:50.207Z,55.75
2023-04-04T16:21:18.343Z,56.16
2023-04-04T16:23:47.491Z,54.96
2023-04-04T16:26:17.478Z,54.51
2023-04-04T16:28:47.185Z,53.64
2023-04-04T16:31:17.938Z,52.76
2023-04-04T16:33:47.798Z,52.69
2023-04-04T16:36:15.927Z,52.71
2023-04-04T16:38:46.146Z,52.13
2023-04-04T16:41:14.195Z,52.03
2023-04-04T16:43:43.013Z,53.28
2023-04-04T16:46:11.060Z,53.34
2023-04-04T16:48:40.572Z,54.17
2023-04-04T16:51:08.633Z,55.87
2023-04-04T16:53:37.243Z,54.68
2023-04-04T16:56:05.860Z,56.16
2023-04-04T16:58:33.907Z,55.82
2023-04-04T17:01:02.415Z,57.98
2023-04-04T17:03:30.829Z,58.65
2023-04-04T17:06:01.826Z,60.36
2023-04-04T17:08:29.893Z,60.82
2023-04-04T17:10:57.855Z,60.18
2023-04-04T17:13:25.899Z,61.00
2023-04-04T17:15:54.142Z,62.65
2023-04-04T17:18:22.070Z,62.64
2023-04-04T17:20:50.125Z,64.05
2023-04-04T17:23:19.545Z,65.31
2023-04-04T17:25:47.631Z,66.48
2023-04-04T17:28:15.688Z,67.90
2023-04-04T17:30:43.705Z,69.95
2023-04-04T17:33:11.716Z,71.59
2023-04-04T17:35:40.314Z,72.14
2023-04-04T17:38:08.343Z,72.99
2023-04-04T17:40:40.714Z,74.57
2023-04-04T17:43:09.410Z,73.30
2023-04-04T17:45:37.857Z,73.62
2023-04-04T17:48:06.673Z,72.69
2023-04-04T17:50:34.713Z,73.49
2023-04-04T17:53:02.970Z,74.66
2023-04-04T17:55:30.935Z,74.18
2023-04-04T17:58:00.539Z,75.45
2023-04-04T18:00:29.805Z,75.48
2023-04-04T18:02:58.205Z,76.90
2023-04-04T18:05:27.128Z,78.58
2023-04-04T18:07:55.168Z,79.60
2023-04-04T18:10:23.207Z,81.09
2023-04-04T18:12:52.166Z,82.20
2023-04-04T18:15:21.628Z,83.42
2023-04-04T18:17:49.775Z,85.08
2023-04-04T18:20:27.739Z,86.48
2023-04-04T18:23:07.114Z,87.61
2023-04-04T18:25:35.305Z,88.10
2023-04-04T18:28:06.782Z,89.86
2023-04-04T18:30:37.466Z,90.99
2023-04-04T18:33:05.824Z,93.20
2023-04-04T18:35:34.141Z,94.20
2023-04-04T18:40:30.684Z,96.56
2023-04-04T18:43:03.218Z,98.01
2023-04-04T18:45:40.321Z,99.06
2023-04-04T18:48:12.760Z,99.63
2023-04-04T18:50:41.071Z,100.00
2023-04-04T18:53:10.138Z,99.28
2023-04-04T18:55:38.211Z,99.51
2023-04-04T18:58:06.939Z,99.32
2023-04-04T19:00:37.756Z,98.51
2023-04-04T19:03:07.645Z,99.59
2023-04-04T19:05:38.019Z,98.24
2023-04-04T19:08:07.622Z,98.71
2023-04-04T19:10:35.947Z,98.99
2023-04-04T19:13:06.170Z,98.92
2023-04-04T19:15:34.846Z,98.14
2023-04-04T19:18:08.843Z,97.60
2023-04-04T19:20:38.546Z,97.55
2023-04-04T19:23:10.370Z,97.69
2023-04-04T19:25:40.195Z,97.14
2023-04-04T19:28:10.822Z,95.91
2023-04-04T19:30:52.917Z,97.15
2023-04-04T19:33:32.509Z,95.42
2023-04-04T19:36:07.710Z,96.72
2023-04-04T19:38:36.557Z,95.69
2023-04-04T19:41:05.183Z,95.68
2023-04-04T19:43:33.682Z,95.38
2023-04-04T19:46:08.342Z,95.95
2023-04-04T19:48:44.181Z,96.12
2023-04-04T19:51:29.240Z,96.67
2023-04-04T19:53:58.872Z,96.51
2023-04-04T19:56:27.513Z,97.37
2023-04-04T19:58:56.303Z,97.01
2023-04-04T20:01:25.445Z,97.58
2023-04-04T20:03:53.604Z,97.00
2023-04-04T20:06:27.344Z,97.53
2023-04-04T20:08:59.820Z,97.77
2023-04-04T20:11:30.190Z,98.50
2023-04-04T20:13:58.282Z,97.81
2023-04-04T20:16:26.502Z,97.46
2023-04-04T20:18:57.827Z,98.28
2023-04-04T20:21:28.637Z,98.26
2023-04-04T20:23:57.884Z,98.63
2023-04-04T20:26:55.099Z,98.33
2023-04-04T20:29:24.418Z,98.81
2023-04-04T20:31:53.441Z,98.88
2023-04-04T20:34:45.750Z,98.56
2023-04-04T20:37:16.547Z,98.99
2023-04-04T20:39:47.697Z,99.92
2023-04-04T20:42:35.056Z,99.07
2023-04-04T20:45:34.873Z,98.97
2023-04-04T20:48:06.661Z,99.79
2023-04-04T20:50:46.526Z,100.00
2023-04-04T20:53:22.591Z,100.00
2023-04-04T20:55:51.542Z,100.00
2023-04-04T20:58:29.824Z,100.00
2023-04-04T21:00:58.894Z,100.00
2023-04-04T21:03:37.000Z,100.00
2023-04-04T21:06:12.664Z,100.00
2023-04-04T21:08:44.809Z,100.00
2023-04-04T21:11:12.961Z,99.11
2023-04-04T21:13:41.466Z,99.26
2023-04-04T21:16:13.227Z,99.84
2023-04-04T21:18:41.908Z,100.00
2023-04-04T21:21:20.672Z,100.00
2023-04-04T21:23:51.156Z,100.00
2023-04-04T21:26:41.784Z,100.00
2023-04-04T21:29:11.447Z,100.00
2023-04-04T21:31:40.123Z,100.00
2023-04-04T21:34:10.608Z,100.00
2023-04-04T21:36:38.645Z,100.00
2023-04-04T21:39:11.447Z,100.00
2023-04-04T21:41:39.440Z,100.00
2023-04-04T21:44:09.025Z,100.00
2023-04-04T21:46:37.954Z,100.00
2023-04-04T21:49:06.485Z,100.00
2023-04-04T21:51:34.385Z,100.00
2023-04-04T21:54:02.577Z,100.00
2023-04-04T21:56:32.794Z,100.00
2023-04-04T21:59:01.518Z,100.00
2023-04-04T22:01:30.710Z,100.00
2023-04-04T22:03:59.036Z,100.00
2023-04-04T22:06:28.360Z,100.00
2023-04-04T22:08:57.396Z,100.00
2023-04-04T22:11:26.217Z,100.00
2023-04-04T22:14:04.292Z,100.00
2023-04-04T22:16:36.949Z,100.00
2023-04-04T22:19:05.774Z,100.00
2023-04-04T22:21:37.068Z,100.00
2023-04-04T22:24:06.899Z,100.00
2023-04-04T22:26:35.478Z,100.00
2023-04-04T22:29:06.188Z,100.00
2023-04-04T22:31:35.324Z,100.00
2023-04-04T22:34:04.068Z,100.00
2023-04-04T22:36:34.582Z,100.00
2023-04-04T22:39:02.997Z,100.00
2023-04-04T22:41:31.083Z,100.00
2023-04-04T22:43:59.349Z,100.00
2023-04-04T22:46:30.022Z,100.00
2023-04-04T22:49:06.462Z,100.00
2023-04-04T22:51:43.348Z,100.00
2023-04-04T22:54:13.163Z,100.00
2023-04-04T22:56:41.849Z,100.00
2023-04-04T22:59:10.023Z,100.00
2023-04-04T23:01:41.290Z,100.00
2023-04-04T23:04:09.821Z,100.00
2023-04-04T23:06:38.390Z,100.00
2023-04-04T23:09:07.963Z,100.00
2023-04-04T23:11:37.069Z,100.00
2023-04-04T23:14:08.853Z,100.00
2023-04-04T23:16:37.383Z,100.00
2023-04-04T23:19:06.797Z,100.00
2023-04-04T23:21:34.839Z,100.00
2023-04-04T23:24:03.004Z,100.00
2023-04-04T23:26:32.610Z,100.00
2023-04-04T23:29:01.541Z,100.00
2023-04-04T23:31:29.851Z,100.00
2023-04-04T23:33:58.238Z,100.00
2023-04-04T23:36:27.726Z,100.00
2023-04-04T23:38:55.737Z,100.00
2023-04-04T23:41:23.730Z,100.00
2023-04-04T23:43:51.813Z,100.00
2023-04-04T23:46:20.009Z,100.00
2023-04-04T23:48:49.543Z,100.00
2023-04-04T23:51:17.687Z,100.00
2023-04-04T23:53:47.094Z,100.00
2023-04-04T23:56:15.117Z,100.00
2023-04-04T23:58:43.054Z,100.00
